sensor_id;sensor_type;location;lat;lon;timestamp;P1;durP1;ratioP1;P2;durP2;ratioP2
37791;SDS011;29527;55.766;37.570;2023-08-17T00:02:12;17.33;;;7.15;;
37791;SDS011;29527;55.766;37.570;2023-08-17T00:04:39;18.95;;;8.05;;
37791;SDS011;29527;55.766;37.570;2023-08-17T00:07:06;16.58;;;7.70;;
37791;SDS011;29527;55.766;37.570;2023-08-17T00:09:32;17.38;;;7.45;;
37791;SDS011;29527;55.766;37.570;2023-08-17T00:11:58;17.02;;;7.57;;
37791;SDS011;29527;55.766;37.570;2023-08-17T00:14:24;18.15;;;7.65;;
37791;SDS011;29527;55.766;37.570;2023-08-17T00:16:50;21.45;;;7.97;;
37791;SDS011;29527;55.766;37.570;2023-08-17T00:19:16;26.10;;;8.10;;
37791;SDS011;29527;55.766;37.570;2023-08-17T00:21:43;21.88;;;8.15;;
37791;SDS011;29527;55.766;37.570;2023-08-17T00:24:09;16.65;;;8.27;;
37791;SDS011;29527;55.766;37.570;2023-08-17T00:26:35;22.02;;;8.65;;
37791;SDS011;29527;55.766;37.570;2023-08-17T00:29:00;21.52;;;8.57;;
37791;SDS011;29527;55.766;37.570;2023-08-17T00:31:26;26.50;;;9.20;;
37791;SDS011;29527;55.766;37.570;2023-08-17T00:33:52;24.52;;;9.23;;
37791;SDS011;29527;55.766;37.570;2023-08-17T00:36:17;23.40;;;9.38;;
37791;SDS011;29527;55.766;37.570;2023-08-17T00:38:43;31.88;;;10.32;;
37791;SDS011;29527;55.766;37.570;2023-08-17T00:41:08;26.45;;;9.38;;
37791;SDS011;29527;55.766;37.570;2023-08-17T00:43:33;28.75;;;10.32;;
37791;SDS011;29527;55.766;37.570;2023-08-17T00:45:59;23.60;;;10.07;;
37791;SDS011;29527;55.766;37.570;2023-08-17T00:48:25;29.77;;;10.65;;
37791;SDS011;29527;55.766;37.570;2023-08-17T00:50:52;27.08;;;9.98;;
37791;SDS011;29527;55.766;37.570;2023-08-17T00:53:19;23.48;;;10.35;;
37791;SDS011;29527;55.766;37.570;2023-08-17T00:55:45;33.17;;;9.90;;
37791;SDS011;29527;55.766;37.570;2023-08-17T00:58:11;30.33;;;9.88;;
37791;SDS011;29527;55.766;37.570;2023-08-17T01:00:37;22.73;;;10.20;;
37791;SDS011;29527;55.766;37.570;2023-08-17T01:03:03;35.15;;;10.57;;
37791;SDS011;29527;55.766;37.570;2023-08-17T01:05:29;35.63;;;11.43;;
37791;SDS011;29527;55.766;37.570;2023-08-17T01:07:56;32.08;;;11.23;;
37791;SDS011;29527;55.766;37.570;2023-08-17T01:10:21;26.60;;;10.55;;
37791;SDS011;29527;55.766;37.570;2023-08-17T01:12:57;31.15;;;11.13;;
37791;SDS011;29527;55.766;37.570;2023-08-17T01:15:36;26.80;;;11.25;;
37791;SDS011;29527;55.766;37.570;2023-08-17T01:20:53;33.35;;;11.68;;
37791;SDS011;29527;55.766;37.570;2023-08-17T01:23:20;32.50;;;12.50;;
37791;SDS011;29527;55.766;37.570;2023-08-17T01:25:47;34.53;;;12.13;;
37791;SDS011;29527;55.766;37.570;2023-08-17T01:28:13;36.28;;;12.15;;
37791;SDS011;29527;55.766;37.570;2023-08-17T01:33:35;31.52;;;12.05;;
37791;SDS011;29527;55.766;37.570;2023-08-17T01:36:06;30.20;;;12.13;;
37791;SDS011;29527;55.766;37.570;2023-08-17T01:41:06;36.83;;;13.18;;
37791;SDS011;29527;55.766;37.570;2023-08-17T01:43:39;39.95;;;13.18;;
37791;SDS011;29527;55.766;37.570;2023-08-17T01:46:07;42.40;;;13.20;;
37791;SDS011;29527;55.766;37.570;2023-08-17T01:48:32;35.10;;;12.98;;
37791;SDS011;29527;55.766;37.570;2023-08-17T01:50:58;32.28;;;12.57;;
37791;SDS011;29527;55.766;37.570;2023-08-17T01:53:23;27.70;;;12.60;;
37791;SDS011;29527;55.766;37.570;2023-08-17T01:55:49;38.08;;;12.30;;
37791;SDS011;29527;55.766;37.570;2023-08-17T01:58:14;30.25;;;12.85;;
37791;SDS011;29527;55.766;37.570;2023-08-17T02:00:40;34.22;;;12.57;;
37791;SDS011;29527;55.766;37.570;2023-08-17T02:03:05;36.78;;;12.95;;
37791;SDS011;29527;55.766;37.570;2023-08-17T02:05:31;33.25;;;13.38;;
37791;SDS011;29527;55.766;37.570;2023-08-17T02:07:56;36.42;;;13.75;;
37791;SDS011;29527;55.766;37.570;2023-08-17T02:10:22;41.25;;;13.43;;
37791;SDS011;29527;55.766;37.570;2023-08-17T02:12:48;39.35;;;13.50;;
37791;SDS011;29527;55.766;37.570;2023-08-17T02:15:14;42.08;;;12.70;;
37791;SDS011;29527;55.766;37.570;2023-08-17T02:17:39;32.85;;;13.77;;
37791;SDS011;29527;55.766;37.570;2023-08-17T02:20:05;32.85;;;13.10;;
37791;SDS011;29527;55.766;37.570;2023-08-17T02:22:31;47.40;;;14.23;;
37791;SDS011;29527;55.766;37.570;2023-08-17T02:24:57;35.97;;;12.68;;
37791;SDS011;29527;55.766;37.570;2023-08-17T02:27:22;35.20;;;12.70;;
37791;SDS011;29527;55.766;37.570;2023-08-17T02:29:48;42.10;;;13.57;;
37791;SDS011;29527;55.766;37.570;2023-08-17T02:32:13;39.28;;;12.23;;
37791;SDS011;29527;55.766;37.570;2023-08-17T02:34:39;38.45;;;13.20;;
37791;SDS011;29527;55.766;37.570;2023-08-17T02:37:04;39.28;;;13.45;;
37791;SDS011;29527;55.766;37.570;2023-08-17T02:39:30;35.58;;;13.20;;
37791;SDS011;29527;55.766;37.570;2023-08-17T02:41:55;35.08;;;12.77;;
37791;SDS011;29527;55.766;37.570;2023-08-17T02:44:21;38.25;;;12.45;;
37791;SDS011;29527;55.766;37.570;2023-08-17T02:46:46;42.35;;;12.82;;
37791;SDS011;29527;55.766;37.570;2023-08-17T02:49:12;38.50;;;12.55;;
37791;SDS011;29527;55.766;37.570;2023-08-17T02:51:37;30.00;;;12.50;;
37791;SDS011;29527;55.766;37.570;2023-08-17T02:54:03;29.17;;;12.07;;
37791;SDS011;29527;55.766;37.570;2023-08-17T02:56:28;44.22;;;13.13;;
37791;SDS011;29527;55.766;37.570;2023-08-17T02:58:54;48.88;;;12.95;;
37791;SDS011;29527;55.766;37.570;2023-08-17T03:01:19;33.38;;;12.45;;
37791;SDS011;29527;55.766;37.570;2023-08-17T03:03:45;31.27;;;11.88;;
37791;SDS011;29527;55.766;37.570;2023-08-17T03:06:11;31.98;;;12.15;;
37791;SDS011;29527;55.766;37.570;2023-08-17T03:08:36;36.15;;;13.38;;
37791;SDS011;29527;55.766;37.570;2023-08-17T03:11:02;34.72;;;13.70;;
37791;SDS011;29527;55.766;37.570;2023-08-17T03:13:28;41.53;;;12.57;;
37791;SDS011;29527;55.766;37.570;2023-08-17T03:15:54;32.60;;;12.07;;
37791;SDS011;29527;55.766;37.570;2023-08-17T03:18:19;38.10;;;12.55;;
37791;SDS011;29527;55.766;37.570;2023-08-17T03:20:45;31.73;;;12.65;;
37791;SDS011;29527;55.766;37.570;2023-08-17T03:23:11;31.45;;;12.95;;
37791;SDS011;29527;55.766;37.570;2023-08-17T03:25:37;33.55;;;12.07;;
37791;SDS011;29527;55.766;37.570;2023-08-17T03:28:03;37.70;;;12.82;;
37791;SDS011;29527;55.766;37.570;2023-08-17T03:30:29;27.48;;;12.25;;
37791;SDS011;29527;55.766;37.570;2023-08-17T03:32:54;29.73;;;12.00;;
37791;SDS011;29527;55.766;37.570;2023-08-17T03:35:20;28.38;;;11.93;;
37791;SDS011;29527;55.766;37.570;2023-08-17T03:37:45;25.67;;;11.60;;
37791;SDS011;29527;55.766;37.570;2023-08-17T03:40:11;32.00;;;11.98;;
37791;SDS011;29527;55.766;37.570;2023-08-17T03:42:36;28.77;;;11.68;;
37791;SDS011;29527;55.766;37.570;2023-08-17T03:45:02;22.73;;;11.23;;
37791;SDS011;29527;55.766;37.570;2023-08-17T03:47:30;30.05;;;11.45;;
37791;SDS011;29527;55.766;37.570;2023-08-17T03:49:56;21.88;;;10.20;;
37791;SDS011;29527;55.766;37.570;2023-08-17T03:52:21;28.52;;;11.00;;
37791;SDS011;29527;55.766;37.570;2023-08-17T03:54:47;22.17;;;10.57;;
37791;SDS011;29527;55.766;37.570;2023-08-17T03:57:12;23.13;;;10.75;;
37791;SDS011;29527;55.766;37.570;2023-08-17T03:59:38;25.88;;;9.75;;
37791;SDS011;29527;55.766;37.570;2023-08-17T04:02:03;20.38;;;9.23;;
37791;SDS011;29527;55.766;37.570;2023-08-17T04:04:29;18.60;;;8.95;;
37791;SDS011;29527;55.766;37.570;2023-08-17T04:06:55;21.00;;;9.50;;
37791;SDS011;29527;55.766;37.570;2023-08-17T04:09:20;15.45;;;8.68;;
37791;SDS011;29527;55.766;37.570;2023-08-17T04:11:46;15.70;;;8.32;;
37791;SDS011;29527;55.766;37.570;2023-08-17T04:14:11;15.50;;;7.80;;
37791;SDS011;29527;55.766;37.570;2023-08-17T04:16:37;15.73;;;8.25;;
37791;SDS011;29527;55.766;37.570;2023-08-17T04:19:03;19.73;;;8.57;;
37791;SDS011;29527;55.766;37.570;2023-08-17T04:21:28;16.25;;;8.07;;
37791;SDS011;29527;55.766;37.570;2023-08-17T04:23:54;16.08;;;8.18;;
37791;SDS011;29527;55.766;37.570;2023-08-17T04:26:19;13.23;;;7.65;;
37791;SDS011;29527;55.766;37.570;2023-08-17T04:28:45;18.27;;;7.90;;
37791;SDS011;29527;55.766;37.570;2023-08-17T04:31:11;12.77;;;7.13;;
37791;SDS011;29527;55.766;37.570;2023-08-17T04:33:36;13.88;;;7.82;;
37791;SDS011;29527;55.766;37.570;2023-08-17T04:36:02;16.58;;;7.43;;
37791;SDS011;29527;55.766;37.570;2023-08-17T04:38:28;13.75;;;8.07;;
37791;SDS011;29527;55.766;37.570;2023-08-17T04:40:53;17.73;;;7.60;;
37791;SDS011;29527;55.766;37.570;2023-08-17T04:43:19;16.70;;;6.63;;
37791;SDS011;29527;55.766;37.570;2023-08-17T04:45:44;14.35;;;7.63;;
37791;SDS011;29527;55.766;37.570;2023-08-17T04:48:13;15.60;;;7.13;;
37791;SDS011;29527;55.766;37.570;2023-08-17T04:50:38;15.15;;;6.95;;
37791;SDS011;29527;55.766;37.570;2023-08-17T04:53:04;17.55;;;6.57;;
37791;SDS011;29527;55.766;37.570;2023-08-17T04:55:30;12.63;;;6.78;;
37791;SDS011;29527;55.766;37.570;2023-08-17T04:57:57;11.85;;;6.05;;
37791;SDS011;29527;55.766;37.570;2023-08-17T05:00:23;13.30;;;5.78;;
37791;SDS011;29527;55.766;37.570;2023-08-17T05:02:56;10.32;;;5.32;;
37791;SDS011;29527;55.766;37.570;2023-08-17T05:05:22;10.23;;;5.35;;
37791;SDS011;29527;55.766;37.570;2023-08-17T05:07:48;11.23;;;5.15;;
37791;SDS011;29527;55.766;37.570;2023-08-17T05:10:13;12.50;;;5.30;;
37791;SDS011;29527;55.766;37.570;2023-08-17T05:12:39;11.40;;;5.45;;
37791;SDS011;29527;55.766;37.570;2023-08-17T05:15:05;11.50;;;4.82;;
37791;SDS011;29527;55.766;37.570;2023-08-17T05:17:31;11.55;;;5.35;;
37791;SDS011;29527;55.766;37.570;2023-08-17T05:19:56;6.90;;;4.55;;
37791;SDS011;29527;55.766;37.570;2023-08-17T05:22:22;12.18;;;4.85;;
37791;SDS011;29527;55.766;37.570;2023-08-17T05:24:47;9.82;;;4.18;;
37791;SDS011;29527;55.766;37.570;2023-08-17T05:27:13;8.63;;;4.55;;
37791;SDS011;29527;55.766;37.570;2023-08-17T05:29:38;9.27;;;4.18;;
37791;SDS011;29527;55.766;37.570;2023-08-17T05:32:04;7.82;;;4.85;;
37791;SDS011;29527;55.766;37.570;2023-08-17T05:34:30;12.38;;;4.20;;
37791;SDS011;29527;55.766;37.570;2023-08-17T05:36:55;7.50;;;4.22;;
37791;SDS011;29527;55.766;37.570;2023-08-17T05:39:21;8.48;;;3.60;;
37791;SDS011;29527;55.766;37.570;2023-08-17T05:41:47;11.82;;;4.20;;
37791;SDS011;29527;55.766;37.570;2023-08-17T05:44:12;7.70;;;3.88;;
37791;SDS011;29527;55.766;37.570;2023-08-17T05:46:39;7.38;;;3.78;;
37791;SDS011;29527;55.766;37.570;2023-08-17T05:49:05;10.23;;;3.92;;
37791;SDS011;29527;55.766;37.570;2023-08-17T05:51:30;7.75;;;3.90;;
37791;SDS011;29527;55.766;37.570;2023-08-17T05:53:56;8.05;;;4.18;;
37791;SDS011;29527;55.766;37.570;2023-08-17T05:56:22;5.13;;;3.38;;
37791;SDS011;29527;55.766;37.570;2023-08-17T05:58:48;5.68;;;2.83;;
37791;SDS011;29527;55.766;37.570;2023-08-17T06:01:13;7.20;;;3.42;;
37791;SDS011;29527;55.766;37.570;2023-08-17T06:03:38;5.80;;;3.40;;
37791;SDS011;29527;55.766;37.570;2023-08-17T06:06:04;6.45;;;3.40;;
37791;SDS011;29527;55.766;37.570;2023-08-17T06:08:32;9.55;;;3.60;;
37791;SDS011;29527;55.766;37.570;2023-08-17T06:10:59;8.00;;;3.15;;
37791;SDS011;29527;55.766;37.570;2023-08-17T06:13:24;7.03;;;3.78;;
37791;SDS011;29527;55.766;37.570;2023-08-17T06:15:50;7.35;;;3.45;;
37791;SDS011;29527;55.766;37.570;2023-08-17T06:18:16;6.63;;;3.22;;
37791;SDS011;29527;55.766;37.570;2023-08-17T06:20:41;9.95;;;3.70;;
37791;SDS011;29527;55.766;37.570;2023-08-17T06:23:07;10.82;;;3.85;;
37791;SDS011;29527;55.766;37.570;2023-08-17T06:25:33;10.38;;;3.70;;
37791;SDS011;29527;55.766;37.570;2023-08-17T06:27:59;8.45;;;3.55;;
37791;SDS011;29527;55.766;37.570;2023-08-17T06:30:25;5.10;;;2.88;;
37791;SDS011;29527;55.766;37.570;2023-08-17T06:32:51;4.22;;;3.80;;
37791;SDS011;29527;55.766;37.570;2023-08-17T06:35:17;7.22;;;3.38;;
37791;SDS011;29527;55.766;37.570;2023-08-17T06:37:42;6.53;;;4.15;;
37791;SDS011;29527;55.766;37.570;2023-08-17T06:40:08;13.00;;;4.25;;
37791;SDS011;29527;55.766;37.570;2023-08-17T06:42:36;5.82;;;3.28;;
37791;SDS011;29527;55.766;37.570;2023-08-17T06:45:03;6.63;;;3.05;;
37791;SDS011;29527;55.766;37.570;2023-08-17T06:47:33;10.35;;;3.40;;
37791;SDS011;29527;55.766;37.570;2023-08-17T06:49:59;4.32;;;3.20;;
37791;SDS011;29527;55.766;37.570;2023-08-17T06:52:24;6.60;;;3.40;;
37791;SDS011;29527;55.766;37.570;2023-08-17T06:54:50;5.32;;;3.45;;
37791;SDS011;29527;55.766;37.570;2023-08-17T06:57:15;5.00;;;3.60;;
37791;SDS011;29527;55.766;37.570;2023-08-17T06:59:41;4.72;;;3.03;;
37791;SDS011;29527;55.766;37.570;2023-08-17T07:02:06;4.55;;;2.72;;
37791;SDS011;29527;55.766;37.570;2023-08-17T07:04:32;6.65;;;3.67;;
37791;SDS011;29527;55.766;37.570;2023-08-17T07:06:58;8.48;;;3.67;;
37791;SDS011;29527;55.766;37.570;2023-08-17T07:09:23;4.40;;;2.83;;
37791;SDS011;29527;55.766;37.570;2023-08-17T07:11:49;5.22;;;3.30;;
37791;SDS011;29527;55.766;37.570;2023-08-17T07:14:15;4.40;;;3.25;;
37791;SDS011;29527;55.766;37.570;2023-08-17T07:16:40;3.70;;;3.40;;
37791;SDS011;29527;55.766;37.570;2023-08-17T07:19:06;4.20;;;3.70;;
37791;SDS011;29527;55.766;37.570;2023-08-17T07:21:31;6.75;;;3.40;;
37791;SDS011;29527;55.766;37.570;2023-08-17T07:23:57;4.25;;;3.92;;
37791;SDS011;29527;55.766;37.570;2023-08-17T07:26:22;4.07;;;3.78;;
37791;SDS011;29527;55.766;37.570;2023-08-17T07:28:48;3.40;;;3.10;;
37791;SDS011;29527;55.766;37.570;2023-08-17T07:31:14;4.03;;;3.72;;
37791;SDS011;29527;55.766;37.570;2023-08-17T07:33:40;4.75;;;3.83;;
37791;SDS011;29527;55.766;37.570;2023-08-17T07:36:06;5.15;;;3.70;;
37791;SDS011;29527;55.766;37.570;2023-08-17T07:38:31;6.17;;;3.97;;
37791;SDS011;29527;55.766;37.570;2023-08-17T07:40:57;8.07;;;4.35;;
37791;SDS011;29527;55.766;37.570;2023-08-17T07:43:23;4.80;;;4.40;;
37791;SDS011;29527;55.766;37.570;2023-08-17T07:45:55;5.50;;;4.22;;
37791;SDS011;29527;55.766;37.570;2023-08-17T07:48:21;6.78;;;3.97;;
37791;SDS011;29527;55.766;37.570;2023-08-17T07:50:50;5.32;;;4.05;;
37791;SDS011;29527;55.766;37.570;2023-08-17T07:53:17;5.45;;;4.00;;
37791;SDS011;29527;55.766;37.570;2023-08-17T07:55:43;4.85;;;4.22;;
37791;SDS011;29527;55.766;37.570;2023-08-17T07:58:09;4.47;;;4.05;;
37791;SDS011;29527;55.766;37.570;2023-08-17T08:00:34;4.95;;;4.40;;
37791;SDS011;29527;55.766;37.570;2023-08-17T08:03:00;5.25;;;3.83;;
37791;SDS011;29527;55.766;37.570;2023-08-17T08:05:25;4.90;;;3.88;;
37791;SDS011;29527;55.766;37.570;2023-08-17T08:07:51;3.58;;;3.22;;
37791;SDS011;29527;55.766;37.570;2023-08-17T08:10:17;7.30;;;3.58;;
37791;SDS011;29527;55.766;37.570;2023-08-17T08:12:44;3.95;;;3.03;;
37791;SDS011;29527;55.766;37.570;2023-08-17T08:15:10;4.57;;;3.15;;
37791;SDS011;29527;55.766;37.570;2023-08-17T08:17:35;5.93;;;2.65;;
37791;SDS011;29527;55.766;37.570;2023-08-17T08:20:02;5.03;;;2.45;;
37791;SDS011;29527;55.766;37.570;2023-08-17T08:22:31;9.90;;;2.75;;
37791;SDS011;29527;55.766;37.570;2023-08-17T08:24:57;7.70;;;3.00;;
37791;SDS011;29527;55.766;37.570;2023-08-17T08:27:23;7.85;;;2.90;;
37791;SDS011;29527;55.766;37.570;2023-08-17T08:29:49;6.10;;;2.95;;
37791;SDS011;29527;55.766;37.570;2023-08-17T08:32:15;5.22;;;2.53;;
37791;SDS011;29527;55.766;37.570;2023-08-17T08:34:41;3.88;;;2.60;;
37791;SDS011;29527;55.766;37.570;2023-08-17T08:37:06;6.72;;;2.90;;
37791;SDS011;29527;55.766;37.570;2023-08-17T08:39:32;4.35;;;2.85;;
37791;SDS011;29527;55.766;37.570;2023-08-17T08:41:57;5.45;;;2.50;;
37791;SDS011;29527;55.766;37.570;2023-08-17T08:44:23;8.00;;;2.97;;
37791;SDS011;29527;55.766;37.570;2023-08-17T08:46:49;5.93;;;2.60;;
37791;SDS011;29527;55.766;37.570;2023-08-17T08:49:20;5.55;;;2.92;;
37791;SDS011;29527;55.766;37.570;2023-08-17T08:51:48;7.05;;;2.95;;
37791;SDS011;29527;55.766;37.570;2023-08-17T08:54:18;4.95;;;2.80;;
37791;SDS011;29527;55.766;37.570;2023-08-17T08:56:47;6.90;;;3.08;;
37791;SDS011;29527;55.766;37.570;2023-08-17T08:59:19;7.00;;;3.03;;
37791;SDS011;29527;55.766;37.570;2023-08-17T09:01:45;8.63;;;2.80;;
37791;SDS011;29527;55.766;37.570;2023-08-17T09:04:12;7.57;;;2.83;;
37791;SDS011;29527;55.766;37.570;2023-08-17T09:06:38;5.57;;;2.90;;
37791;SDS011;29527;55.766;37.570;2023-08-17T09:09:05;9.40;;;2.63;;
37791;SDS011;29527;55.766;37.570;2023-08-17T09:11:31;7.82;;;3.00;;
37791;SDS011;29527;55.766;37.570;2023-08-17T09:13:57;7.50;;;3.00;;
37791;SDS011;29527;55.766;37.570;2023-08-17T09:16:22;5.78;;;2.72;;
37791;SDS011;29527;55.766;37.570;2023-08-17T09:18:48;7.82;;;3.25;;
37791;SDS011;29527;55.766;37.570;2023-08-17T09:21:23;7.93;;;3.22;;
37791;SDS011;29527;55.766;37.570;2023-08-17T09:26:19;7.00;;;3.17;;
37791;SDS011;29527;55.766;37.570;2023-08-17T09:28:45;5.60;;;2.67;;
37791;SDS011;29527;55.766;37.570;2023-08-17T09:31:10;5.45;;;2.92;;
37791;SDS011;29527;55.766;37.570;2023-08-17T09:33:36;7.50;;;2.80;;
37791;SDS011;29527;55.766;37.570;2023-08-17T09:36:02;8.70;;;3.03;;
37791;SDS011;29527;55.766;37.570;2023-08-17T09:38:28;7.68;;;3.53;;
37791;SDS011;29527;55.766;37.570;2023-08-17T09:40:54;5.93;;;2.97;;
37791;SDS011;29527;55.766;37.570;2023-08-17T09:43:20;4.18;;;2.80;;
37791;SDS011;29527;55.766;37.570;2023-08-17T09:45:46;5.28;;;3.00;;
37791;SDS011;29527;55.766;37.570;2023-08-17T09:48:15;7.00;;;2.65;;
37791;SDS011;29527;55.766;37.570;2023-08-17T09:50:43;6.05;;;3.13;;
37791;SDS011;29527;55.766;37.570;2023-08-17T09:53:13;9.70;;;3.40;;
37791;SDS011;29527;55.766;37.570;2023-08-17T09:55:42;6.38;;;2.92;;
37791;SDS011;29527;55.766;37.570;2023-08-17T09:58:09;7.13;;;3.17;;
37791;SDS011;29527;55.766;37.570;2023-08-17T10:00:40;6.93;;;3.40;;
37791;SDS011;29527;55.766;37.570;2023-08-17T10:03:09;6.90;;;2.83;;
37791;SDS011;29527;55.766;37.570;2023-08-17T10:05:38;7.70;;;2.88;;
37791;SDS011;29527;55.766;37.570;2023-08-17T10:08:05;6.57;;;3.15;;
37791;SDS011;29527;55.766;37.570;2023-08-17T10:10:34;6.20;;;3.00;;
37791;SDS011;29527;55.766;37.570;2023-08-17T10:18:22;4.60;;;3.25;;
37791;SDS011;29527;55.766;37.570;2023-08-17T10:21:21;7.80;;;3.30;;
37791;SDS011;29527;55.766;37.570;2023-08-17T10:23:52;9.43;;;2.97;;
37791;SDS011;29527;55.766;37.570;2023-08-17T10:26:18;6.22;;;3.03;;
37791;SDS011;29527;55.766;37.570;2023-08-17T10:28:45;6.07;;;2.88;;
37791;SDS011;29527;55.766;37.570;2023-08-17T10:31:11;6.03;;;2.90;;
37791;SDS011;29527;55.766;37.570;2023-08-17T10:33:37;6.75;;;3.10;;
37791;SDS011;29527;55.766;37.570;2023-08-17T10:36:06;9.05;;;3.10;;
37791;SDS011;29527;55.766;37.570;2023-08-17T10:38:32;7.05;;;3.13;;
37791;SDS011;29527;55.766;37.570;2023-08-17T10:41:16;9.30;;;3.47;;
37791;SDS011;29527;55.766;37.570;2023-08-17T10:43:54;10.60;;;3.60;;
37791;SDS011;29527;55.766;37.570;2023-08-17T10:46:33;6.70;;;3.33;;
37791;SDS011;29527;55.766;37.570;2023-08-17T10:49:03;4.88;;;3.38;;
37791;SDS011;29527;55.766;37.570;2023-08-17T10:51:33;5.53;;;3.60;;
37791;SDS011;29527;55.766;37.570;2023-08-17T10:54:01;7.30;;;3.28;;
37791;SDS011;29527;55.766;37.570;2023-08-17T10:56:28;6.72;;;3.03;;
37791;SDS011;29527;55.766;37.570;2023-08-17T10:58:54;5.63;;;3.40;;
37791;SDS011;29527;55.766;37.570;2023-08-17T11:01:31;6.13;;;3.10;;
37791;SDS011;29527;55.766;37.570;2023-08-17T11:04:09;5.43;;;3.03;;
37791;SDS011;29527;55.766;37.570;2023-08-17T11:06:36;6.95;;;3.30;;
37791;SDS011;29527;55.766;37.570;2023-08-17T11:09:05;9.68;;;3.47;;
37791;SDS011;29527;55.766;37.570;2023-08-17T11:11:32;6.55;;;3.70;;
37791;SDS011;29527;55.766;37.570;2023-08-17T11:13:58;5.40;;;3.25;;
37791;SDS011;29527;55.766;37.570;2023-08-17T11:16:23;5.15;;;3.42;;
37791;SDS011;29527;55.766;37.570;2023-08-17T11:18:49;6.10;;;3.80;;
37791;SDS011;29527;55.766;37.570;2023-08-17T11:21:16;7.20;;;3.50;;
37791;SDS011;29527;55.766;37.570;2023-08-17T11:23:42;6.70;;;3.08;;
37791;SDS011;29527;55.766;37.570;2023-08-17T11:26:08;8.52;;;3.22;;
37791;SDS011;29527;55.766;37.570;2023-08-17T11:28:34;7.80;;;2.97;;
37791;SDS011;29527;55.766;37.570;2023-08-17T11:31:07;5.45;;;3.28;;
37791;SDS011;29527;55.766;37.570;2023-08-17T11:33:36;5.50;;;3.80;;
37791;SDS011;29527;55.766;37.570;2023-08-17T11:36:06;6.90;;;3.17;;
37791;SDS011;29527;55.766;37.570;2023-08-17T11:38:36;7.35;;;3.40;;
37791;SDS011;29527;55.766;37.570;2023-08-17T11:41:04;9.30;;;3.50;;
37791;SDS011;29527;55.766;37.570;2023-08-17T11:43:32;8.30;;;3.47;;
37791;SDS011;29527;55.766;37.570;2023-08-17T11:45:59;7.13;;;3.60;;
37791;SDS011;29527;55.766;37.570;2023-08-17T11:48:25;10.00;;;3.55;;
37791;SDS011;29527;55.766;37.570;2023-08-17T11:50:51;8.48;;;3.50;;
37791;SDS011;29527;55.766;37.570;2023-08-17T11:53:18;10.30;;;3.78;;
37791;SDS011;29527;55.766;37.570;2023-08-17T11:55:43;6.95;;;3.50;;
37791;SDS011;29527;55.766;37.570;2023-08-17T11:58:09;7.93;;;3.30;;
37791;SDS011;29527;55.766;37.570;2023-08-17T12:00:43;6.70;;;3.60;;
37791;SDS011;29527;55.766;37.570;2023-08-17T12:03:13;7.45;;;3.30;;
37791;SDS011;29527;55.766;37.570;2023-08-17T12:05:40;7.30;;;3.05;;
37791;SDS011;29527;55.766;37.570;2023-08-17T12:08:07;7.53;;;3.65;;
37791;SDS011;29527;55.766;37.570;2023-08-17T12:10:33;10.75;;;3.47;;
37791;SDS011;29527;55.766;37.570;2023-08-17T12:12:59;10.57;;;3.55;;
37791;SDS011;29527;55.766;37.570;2023-08-17T12:15:30;5.88;;;3.53;;
37791;SDS011;29527;55.766;37.570;2023-08-17T12:18:00;6.85;;;3.70;;
37791;SDS011;29527;55.766;37.570;2023-08-17T12:20:27;5.38;;;3.40;;
37791;SDS011;29527;55.766;37.570;2023-08-17T12:22:53;8.48;;;3.25;;
37791;SDS011;29527;55.766;37.570;2023-08-17T12:25:21;7.13;;;3.80;;
37791;SDS011;29527;55.766;37.570;2023-08-17T12:27:48;5.15;;;3.45;;
37791;SDS011;29527;55.766;37.570;2023-08-17T12:30:23;6.78;;;3.90;;
37791;SDS011;29527;55.766;37.570;2023-08-17T12:32:51;6.03;;;3.30;;
37791;SDS011;29527;55.766;37.570;2023-08-17T12:35:16;7.68;;;3.30;;
37791;SDS011;29527;55.766;37.570;2023-08-17T12:37:42;6.05;;;3.22;;
37791;SDS011;29527;55.766;37.570;2023-08-17T12:40:08;5.90;;;3.63;;
37791;SDS011;29527;55.766;37.570;2023-08-17T12:42:35;6.30;;;3.15;;
37791;SDS011;29527;55.766;37.570;2023-08-17T12:45:00;7.22;;;3.65;;
37791;SDS011;29527;55.766;37.570;2023-08-17T12:47:26;7.82;;;3.10;;
37791;SDS011;29527;55.766;37.570;2023-08-17T12:49:51;6.63;;;3.33;;
37791;SDS011;29527;55.766;37.570;2023-08-17T12:52:17;7.60;;;3.30;;
37791;SDS011;29527;55.766;37.570;2023-08-17T12:54:42;4.57;;;3.30;;
37791;SDS011;29527;55.766;37.570;2023-08-17T12:57:07;6.93;;;3.15;;
37791;SDS011;29527;55.766;37.570;2023-08-17T12:59:33;6.30;;;3.10;;
37791;SDS011;29527;55.766;37.570;2023-08-17T13:01:59;7.80;;;3.20;;
37791;SDS011;29527;55.766;37.570;2023-08-17T13:04:25;7.65;;;3.55;;
37791;SDS011;29527;55.766;37.570;2023-08-17T13:06:50;5.75;;;3.00;;
37791;SDS011;29527;55.766;37.570;2023-08-17T13:09:16;10.85;;;3.35;;
37791;SDS011;29527;55.766;37.570;2023-08-17T13:11:44;6.18;;;3.70;;
37791;SDS011;29527;55.766;37.570;2023-08-17T13:14:09;12.23;;;4.00;;
37791;SDS011;29527;55.766;37.570;2023-08-17T13:16:35;4.50;;;3.15;;
37791;SDS011;29527;55.766;37.570;2023-08-17T13:19:00;6.43;;;2.85;;
37791;SDS011;29527;55.766;37.570;2023-08-17T13:21:26;6.32;;;3.00;;
37791;SDS011;29527;55.766;37.570;2023-08-17T13:23:51;7.70;;;2.90;;
37791;SDS011;29527;55.766;37.570;2023-08-17T13:26:17;4.28;;;2.22;;
37791;SDS011;29527;55.766;37.570;2023-08-17T13:28:42;6.57;;;2.55;;
37791;SDS011;29527;55.766;37.570;2023-08-17T13:31:08;6.07;;;2.30;;
37791;SDS011;29527;55.766;37.570;2023-08-17T13:33:33;5.13;;;2.25;;
37791;SDS011;29527;55.766;37.570;2023-08-17T13:35:59;4.40;;;2.60;;
37791;SDS011;29527;55.766;37.570;2023-08-17T13:38:24;3.55;;;2.47;;
37791;SDS011;29527;55.766;37.570;2023-08-17T13:40:50;8.38;;;2.40;;
37791;SDS011;29527;55.766;37.570;2023-08-17T13:43:15;7.75;;;2.55;;
37791;SDS011;29527;55.766;37.570;2023-08-17T13:45:41;6.63;;;2.78;;
37791;SDS011;29527;55.766;37.570;2023-08-17T13:48:07;3.78;;;2.55;;
37791;SDS011;29527;55.766;37.570;2023-08-17T13:50:33;4.25;;;2.53;;
37791;SDS011;29527;55.766;37.570;2023-08-17T13:52:59;6.25;;;2.75;;
37791;SDS011;29527;55.766;37.570;2023-08-17T13:55:26;3.38;;;2.72;;
37791;SDS011;29527;55.766;37.570;2023-08-17T13:57:53;8.13;;;3.67;;
37791;SDS011;29527;55.766;37.570;2023-08-17T14:00:20;8.52;;;3.70;;
37791;SDS011;29527;55.766;37.570;2023-08-17T14:02:46;5.50;;;3.03;;
37791;SDS011;29527;55.766;37.570;2023-08-17T14:05:12;6.22;;;2.83;;
37791;SDS011;29527;55.766;37.570;2023-08-17T14:07:37;4.90;;;2.63;;
37791;SDS011;29527;55.766;37.570;2023-08-17T14:10:03;9.02;;;2.67;;
37791;SDS011;29527;55.766;37.570;2023-08-17T14:12:30;5.57;;;2.40;;
37791;SDS011;29527;55.766;37.570;2023-08-17T14:14:55;6.50;;;2.40;;
37791;SDS011;29527;55.766;37.570;2023-08-17T14:17:21;4.38;;;2.58;;
37791;SDS011;29527;55.766;37.570;2023-08-17T14:19:46;6.15;;;2.40;;
37791;SDS011;29527;55.766;37.570;2023-08-17T14:22:12;7.35;;;3.03;;
37791;SDS011;29527;55.766;37.570;2023-08-17T14:24:37;6.10;;;2.85;;
37791;SDS011;29527;55.766;37.570;2023-08-17T14:27:03;5.15;;;2.67;;
37791;SDS011;29527;55.766;37.570;2023-08-17T14:29:28;7.57;;;2.80;;
37791;SDS011;29527;55.766;37.570;2023-08-17T14:31:54;8.65;;;2.95;;
37791;SDS011;29527;55.766;37.570;2023-08-17T14:34:19;8.25;;;2.65;;
37791;SDS011;29527;55.766;37.570;2023-08-17T14:36:46;6.55;;;3.00;;
37791;SDS011;29527;55.766;37.570;2023-08-17T14:39:12;4.38;;;2.92;;